createdAt,value
2022-10-31T00:02:07.794Z,94.70
2022-10-31T00:04:38.084Z,94.80
2022-10-31T00:07:08.667Z,94.60
2022-10-31T00:09:38.401Z,94.70
2022-10-31T00:12:09.069Z,94.80
2022-10-31T00:14:39.382Z,94.90
2022-10-31T00:17:09.815Z,94.80
2022-10-31T00:19:40.222Z,94.90
2022-10-31T00:22:11.511Z,94.90
2022-10-31T00:24:41.795Z,95.20
2022-10-31T00:27:12.165Z,95.00
2022-10-31T00:29:42.556Z,95.10
2022-10-31T00:32:12.892Z,95.10
2022-10-31T00:34:43.274Z,95.10
2022-10-31T00:37:13.623Z,95.10
2022-10-31T00:39:44.479Z,95.20
2022-10-31T00:42:14.972Z,95.30
2022-10-31T00:44:45.465Z,95.20
2022-10-31T00:47:15.327Z,95.10
2022-10-31T00:49:46.284Z,95.10
2022-10-31T00:52:17.266Z,95.20
2022-10-31T00:54:47.679Z,95.20
2022-10-31T00:57:17.943Z,95.20
2022-10-31T00:59:48.394Z,95.10
2022-10-31T01:02:18.861Z,95.10
2022-10-31T01:04:48.633Z,95.10
2022-10-31T01:07:18.966Z,95.10
2022-10-31T01:09:49.419Z,95.00
2022-10-31T01:12:19.077Z,94.80
2022-10-31T01:14:49.841Z,94.70
2022-10-31T01:17:20.250Z,94.60
2022-10-31T01:19:50.540Z,94.50
2022-10-31T01:22:20.858Z,94.60
2022-10-31T01:24:51.239Z,94.50
2022-10-31T01:27:21.558Z,94.40
2022-10-31T01:29:51.852Z,94.30
2022-10-31T01:32:22.150Z,94.00
2022-10-31T01:34:52.607Z,93.80
2022-10-31T01:37:22.408Z,93.70
2022-10-31T01:39:53.255Z,93.60
2022-10-31T01:42:26.006Z,93.40
2022-10-31T01:45:00.281Z,93.30
2022-10-31T01:47:54.134Z,93.10
2022-10-31T01:50:34.687Z,93.00
2022-10-31T01:53:05.380Z,92.70
2022-10-31T01:55:39.138Z,92.70
2022-10-31T01:58:15.121Z,92.70
2022-10-31T02:00:49.787Z,92.50
2022-10-31T02:03:22.023Z,92.20
2022-10-31T02:05:53.605Z,91.70
2022-10-31T02:08:33.884Z,91.70
2022-10-31T02:11:04.833Z,91.30
2022-10-31T02:13:36.812Z,91.50
2022-10-31T02:16:07.022Z,91.60
2022-10-31T02:18:37.075Z,91.50
2022-10-31T02:21:26.883Z,91.30
2022-10-31T02:24:27.511Z,91.30
2022-10-31T02:27:32.020Z,91.40
2022-10-31T02:30:09.152Z,91.20
2022-10-31T02:33:18.522Z,90.80
2022-10-31T02:36:06.368Z,90.70
2022-10-31T02:39:08.140Z,90.60
2022-10-31T02:41:54.534Z,90.80
2022-10-31T02:44:32.942Z,90.90
2022-10-31T02:47:08.803Z,90.90
2022-10-31T02:49:53.922Z,90.60
2022-10-31T02:52:27.645Z,90.60
2022-10-31T02:54:58.017Z,90.40
2022-10-31T02:57:32.768Z,90.60
2022-10-31T03:00:08.376Z,90.70
2022-10-31T03:03:09.903Z,90.90
2022-10-31T03:06:05.465Z,90.40
2022-10-31T03:09:06.335Z,90.50
2022-10-31T03:11:51.956Z,90.90
2022-10-31T03:14:33.675Z,91.10
2022-10-31T03:17:09.871Z,91.00
2022-10-31T03:19:44.974Z,90.70
2022-10-31T03:22:25.679Z,90.40
2022-10-31T03:24:58.116Z,90.00
2022-10-31T03:27:30.861Z,90.40
2022-10-31T03:30:04.301Z,90.30
2022-10-31T03:32:47.802Z,90.40
2022-10-31T03:35:21.014Z,90.80
2022-10-31T03:37:53.441Z,90.40
2022-10-31T03:40:26.690Z,90.00
2022-10-31T03:43:06.645Z,88.80
2022-10-31T03:45:39.186Z,89.10
2022-10-31T03:48:09.835Z,90.20
2022-10-31T03:50:52.478Z,89.40
2022-10-31T03:53:39.691Z,88.00
2022-10-31T03:56:21.025Z,87.50
2022-10-31T03:59:07.277Z,88.10
2022-10-31T04:01:42.006Z,88.70
2022-10-31T04:04:13.217Z,87.00
2022-10-31T04:06:46.208Z,87.30
2022-10-31T04:09:18.394Z,87.40
2022-10-31T04:11:54.194Z,86.40
2022-10-31T04:14:27.249Z,86.30
2022-10-31T04:16:57.638Z,85.20
2022-10-31T04:19:27.840Z,85.90
2022-10-31T04:21:57.704Z,86.30
2022-10-31T04:24:27.526Z,84.80
2022-10-31T04:26:57.620Z,85.60
2022-10-31T04:29:27.530Z,85.60
2022-10-31T04:31:57.451Z,85.20
2022-10-31T04:34:27.657Z,85.40
2022-10-31T04:36:57.621Z,84.00
2022-10-31T04:39:27.571Z,83.90
2022-10-31T04:41:57.617Z,83.60
2022-10-31T04:44:30.952Z,83.60
2022-10-31T04:47:00.965Z,83.30
2022-10-31T04:49:30.931Z,81.80
2022-10-31T04:52:01.002Z,81.50
2022-10-31T04:54:30.391Z,82.10
2022-10-31T04:57:00.238Z,81.80
2022-10-31T04:59:30.252Z,80.00
2022-10-31T05:02:00.489Z,80.20
2022-10-31T05:04:30.471Z,78.80
2022-10-31T05:07:00.545Z,80.00
2022-10-31T05:09:29.939Z,79.30
2022-10-31T05:11:59.735Z,77.50
2022-10-31T05:14:29.663Z,78.60
2022-10-31T05:17:03.860Z,78.60
2022-10-31T05:19:37.008Z,77.80
2022-10-31T05:22:06.910Z,78.20
2022-10-31T05:24:38.821Z,77.80
2022-10-31T05:27:08.623Z,78.00
2022-10-31T05:29:38.717Z,77.60
2022-10-31T05:32:08.572Z,77.70
2022-10-31T05:34:38.383Z,76.20
2022-10-31T05:37:08.320Z,77.10
2022-10-31T05:39:37.591Z,76.50
2022-10-31T05:42:07.456Z,76.70
2022-10-31T05:44:37.949Z,74.90
2022-10-31T05:47:08.203Z,75.20
2022-10-31T05:49:38.321Z,73.30
2022-10-31T05:52:08.335Z,72.80
2022-10-31T05:54:37.686Z,74.40
2022-10-31T05:57:08.528Z,74.10
2022-10-31T05:59:38.447Z,73.20
2022-10-31T06:02:08.381Z,73.80
2022-10-31T06:04:38.763Z,73.60
2022-10-31T06:07:09.073Z,73.40
2022-10-31T06:09:39.043Z,73.80
2022-10-31T06:12:08.528Z,73.20
2022-10-31T06:14:38.568Z,74.80
2022-10-31T06:17:08.432Z,73.90
2022-10-31T06:19:39.531Z,73.00
2022-10-31T06:22:09.904Z,71.10
2022-10-31T06:24:39.903Z,70.30
2022-10-31T06:27:09.424Z,72.60
2022-10-31T06:29:39.493Z,72.00
2022-10-31T06:32:09.424Z,72.50
2022-10-31T06:34:38.836Z,72.90
2022-10-31T06:37:10.997Z,71.80
2022-10-31T06:39:41.246Z,71.90
2022-10-31T06:42:11.263Z,71.30
2022-10-31T06:44:41.309Z,70.90
2022-10-31T06:47:11.235Z,70.30
2022-10-31T06:49:40.554Z,69.40
2022-10-31T06:52:10.794Z,68.90
2022-10-31T06:54:40.660Z,67.90
2022-10-31T06:57:10.658Z,68.90
2022-10-31T06:59:39.967Z,71.10
2022-10-31T07:02:13.567Z,71.50
2022-10-31T07:04:43.840Z,69.40
2022-10-31T07:07:14.241Z,70.30
2022-10-31T07:09:44.351Z,70.40
2022-10-31T07:12:15.870Z,70.30
2022-10-31T07:14:45.977Z,68.70
2022-10-31T07:17:15.775Z,70.50
2022-10-31T07:19:45.794Z,69.50
2022-10-31T07:22:16.472Z,70.80
2022-10-31T07:24:46.567Z,70.10
2022-10-31T07:27:16.795Z,72.70
2022-10-31T07:29:46.690Z,74.20
2022-10-31T07:32:15.936Z,72.50
2022-10-31T07:34:47.486Z,72.80
2022-10-31T07:37:18.734Z,73.40
2022-10-31T07:39:50.643Z,72.80
2022-10-31T07:42:20.552Z,74.30
2022-10-31T07:44:51.552Z,73.50
2022-10-31T07:47:24.449Z,73.50
2022-10-31T07:49:54.876Z,73.70
2022-10-31T07:52:25.323Z,74.40
2022-10-31T07:54:55.721Z,74.30
2022-10-31T07:57:28.457Z,74.60
2022-10-31T08:00:01.677Z,75.00
2022-10-31T08:02:32.606Z,74.50
2022-10-31T08:05:05.056Z,74.50
2022-10-31T08:07:40.772Z,73.90
2022-10-31T08:10:11.419Z,73.40
2022-10-31T08:12:41.656Z,73.80
2022-10-31T08:15:12.739Z,73.20
2022-10-31T08:17:43.964Z,74.00
2022-10-31T08:20:14.813Z,72.90
2022-10-31T08:22:45.269Z,73.90
2022-10-31T08:25:15.793Z,73.80
2022-10-31T08:27:46.179Z,74.40
2022-10-31T08:30:16.842Z,74.10
2022-10-31T08:32:47.263Z,74.60
2022-10-31T08:35:17.944Z,72.70
2022-10-31T08:37:48.411Z,73.70
2022-10-31T08:40:19.780Z,73.40
2022-10-31T08:42:50.134Z,74.40
2022-10-31T08:45:20.614Z,73.70
2022-10-31T08:47:50.598Z,74.60
2022-10-31T08:50:21.026Z,73.20
2022-10-31T08:53:04.902Z,74.10
2022-10-31T08:55:38.290Z,74.30
2022-10-31T08:58:10.557Z,73.80
2022-10-31T09:00:41.136Z,74.30
2022-10-31T09:03:15.834Z,74.70
2022-10-31T09:05:46.380Z,74.80
2022-10-31T09:08:17.293Z,75.40
2022-10-31T09:10:48.686Z,75.30
2022-10-31T09:13:21.805Z,75.10
2022-10-31T09:15:53.049Z,73.80
2022-10-31T09:18:25.845Z,74.70
2022-10-31T09:20:55.915Z,75.10
2022-10-31T09:23:26.796Z,76.40
2022-10-31T09:25:57.687Z,76.20
2022-10-31T09:28:28.048Z,76.20
2022-10-31T09:30:58.570Z,76.80
2022-10-31T09:33:28.777Z,77.70
2022-10-31T09:36:01.285Z,77.10
2022-10-31T09:38:31.057Z,76.90
2022-10-31T09:41:22.449Z,77.60
2022-10-31T09:44:18.064Z,77.80
2022-10-31T09:47:04.132Z,76.70
2022-10-31T09:50:02.622Z,77.50
2022-10-31T09:52:37.462Z,79.20
2022-10-31T09:55:21.028Z,78.90
2022-10-31T09:57:51.942Z,78.70
2022-10-31T10:00:25.415Z,79.80
2022-10-31T10:03:14.318Z,79.20
2022-10-31T10:05:59.956Z,79.10
2022-10-31T10:08:34.528Z,79.60
2022-10-31T10:11:33.999Z,79.10
2022-10-31T10:14:28.722Z,79.70
2022-10-31T10:17:34.650Z,80.20
2022-10-31T10:20:26.857Z,79.80
2022-10-31T10:23:20.689Z,80.30
2022-10-31T10:25:57.218Z,80.10
2022-10-31T10:28:36.274Z,79.70
2022-10-31T10:31:29.201Z,80.50
2022-10-31T10:34:29.744Z,80.90
2022-10-31T10:37:15.731Z,80.20
2022-10-31T10:39:51.447Z,80.60
2022-10-31T10:42:35.489Z,81.30
2022-10-31T10:45:35.533Z,81.10
2022-10-31T10:48:12.004Z,81.40
2022-10-31T10:50:49.586Z,81.90
2022-10-31T10:53:38.445Z,82.30
2022-10-31T10:56:20.396Z,83.00
2022-10-31T10:58:51.080Z,82.80
2022-10-31T11:01:20.933Z,83.30
2022-10-31T11:03:51.089Z,83.80
2022-10-31T11:06:24.913Z,84.30
2022-10-31T11:08:55.712Z,84.30
2022-10-31T11:11:38.974Z,84.40
2022-10-31T11:14:16.724Z,85.00
2022-10-31T11:16:50.640Z,84.50
2022-10-31T11:19:24.695Z,85.30
2022-10-31T11:21:56.138Z,86.10
2022-10-31T11:24:29.986Z,86.00
2022-10-31T11:27:26.384Z,85.70
2022-10-31T11:30:06.923Z,86.20
2022-10-31T11:32:36.957Z,85.90
2022-10-31T11:35:16.031Z,86.50
2022-10-31T11:37:48.429Z,86.60
2022-10-31T11:40:26.277Z,86.10
2022-10-31T11:43:00.261Z,86.00
2022-10-31T11:45:36.418Z,86.40
2022-10-31T11:48:18.150Z,87.00
2022-10-31T11:50:55.971Z,87.20
2022-10-31T11:53:32.699Z,88.10
2022-10-31T11:56:17.828Z,88.60
2022-10-31T11:58:58.146Z,88.40
2022-10-31T12:01:31.577Z,88.20
2022-10-31T12:04:18.197Z,88.40
2022-10-31T12:06:50.536Z,88.90
2022-10-31T12:09:37.029Z,88.90
2022-10-31T12:12:46.135Z,89.40
2022-10-31T12:15:31.580Z,89.30
2022-10-31T12:18:31.975Z,89.60
2022-10-31T12:21:27.777Z,89.10
2022-10-31T12:24:27.053Z,89.30
2022-10-31T12:27:22.339Z,89.70
2022-10-31T12:30:13.692Z,90.10
2022-10-31T12:33:03.294Z,89.30
2022-10-31T12:35:48.676Z,90.30
2022-10-31T12:38:57.306Z,89.50
2022-10-31T12:41:54.227Z,89.70
2022-10-31T12:44:53.294Z,90.00
2022-10-31T12:47:53.432Z,89.80
2022-10-31T12:50:48.834Z,89.60
2022-10-31T12:53:53.899Z,89.40
2022-10-31T12:56:54.684Z,88.90
2022-10-31T12:59:41.280Z,88.40
2022-10-31T13:02:43.070Z,88.80
2022-10-31T13:05:33.731Z,89.00
2022-10-31T13:08:15.826Z,89.10
2022-10-31T13:10:53.589Z,89.20
2022-10-31T13:13:37.357Z,89.40
2022-10-31T13:16:18.746Z,89.10
2022-10-31T13:18:57.309Z,89.40
2022-10-31T13:21:41.518Z,90.10
2022-10-31T13:24:21.794Z,90.20
2022-10-31T13:26:53.354Z,90.20
2022-10-31T13:29:36.018Z,90.60
2022-10-31T13:32:10.274Z,90.40
2022-10-31T13:34:45.103Z,90.40
2022-10-31T13:37:48.804Z,90.60
2022-10-31T13:40:47.652Z,90.60
2022-10-31T13:43:56.382Z,90.90
2022-10-31T13:46:29.359Z,91.00
2022-10-31T13:48:59.520Z,90.80
2022-10-31T13:51:31.616Z,90.70
2022-10-31T13:54:22.573Z,90.70
2022-10-31T13:56:55.446Z,91.10
2022-10-31T13:59:27.574Z,91.00
2022-10-31T14:02:02.671Z,90.90
2022-10-31T14:04:51.354Z,91.00
2022-10-31T14:07:26.136Z,91.20
2022-10-31T14:10:16.679Z,91.30
2022-10-31T14:12:50.680Z,91.20
2022-10-31T14:15:27.975Z,91.20
2022-10-31T14:18:03.633Z,91.60
2022-10-31T14:20:40.010Z,92.10
2022-10-31T14:23:36.428Z,91.60
2022-10-31T14:26:23.432Z,91.50
2022-10-31T14:28:55.029Z,91.90
2022-10-31T14:31:44.304Z,91.90
2022-10-31T14:34:34.776Z,91.80
2022-10-31T14:37:31.886Z,91.80
2022-10-31T14:40:27.496Z,91.90
2022-10-31T14:43:36.833Z,92.30
2022-10-31T14:46:23.458Z,92.20
2022-10-31T14:49:19.018Z,92.10
2022-10-31T14:51:51.491Z,92.00
2022-10-31T14:54:40.546Z,92.30
2022-10-31T14:57:22.089Z,92.10
2022-10-31T15:00:00.675Z,92.00
2022-10-31T15:02:57.113Z,92.10
2022-10-31T15:05:29.036Z,92.20
2022-10-31T15:08:00.973Z,92.10
2022-10-31T15:10:35.889Z,91.90
2022-10-31T15:13:24.788Z,91.80
2022-10-31T15:15:58.270Z,91.90
2022-10-31T15:18:31.413Z,91.60
2022-10-31T15:21:01.439Z,91.70
2022-10-31T15:23:34.483Z,91.60
2022-10-31T15:26:06.951Z,91.80
2022-10-31T15:28:37.265Z,91.70
2022-10-31T15:31:06.727Z,91.80
2022-10-31T15:33:48.329Z,92.00
2022-10-31T15:36:27.730Z,92.30
2022-10-31T15:39:01.428Z,92.50
2022-10-31T15:41:37.865Z,92.20
2022-10-31T15:44:24.240Z,92.20
2022-10-31T15:47:00.129Z,92.00
2022-10-31T15:49:41.031Z,92.00
2022-10-31T15:52:47.934Z,92.00
2022-10-31T15:55:25.995Z,92.20
2022-10-31T15:58:06.918Z,92.50
2022-10-31T16:00:41.064Z,92.50
2022-10-31T16:03:31.725Z,92.60
2022-10-31T16:06:06.564Z,92.50
2022-10-31T16:08:39.117Z,92.60
2022-10-31T16:11:36.049Z,92.70
2022-10-31T16:14:25.177Z,92.40
2022-10-31T16:17:00.337Z,92.30
2022-10-31T16:19:35.570Z,92.10
2022-10-31T16:22:10.479Z,92.20
2022-10-31T16:24:59.746Z,92.30
2022-10-31T16:27:34.278Z,92.30
2022-10-31T16:30:07.493Z,92.30
2022-10-31T16:32:40.665Z,92.60
2022-10-31T16:35:35.096Z,92.60
2022-10-31T16:38:06.353Z,92.90
2022-10-31T16:40:40.733Z,93.00
2022-10-31T16:43:17.021Z,93.00
2022-10-31T16:45:49.276Z,93.00
2022-10-31T16:48:24.306Z,92.90
2022-10-31T16:50:55.937Z,92.90
2022-10-31T16:53:26.088Z,93.20
2022-10-31T16:56:01.399Z,93.10
2022-10-31T16:58:35.718Z,93.10
2022-10-31T17:01:08.225Z,93.10
2022-10-31T17:03:38.397Z,93.20
2022-10-31T17:06:08.554Z,93.10
2022-10-31T17:08:38.469Z,93.00
2022-10-31T17:11:10.638Z,93.10
2022-10-31T17:13:41.460Z,93.20
2022-10-31T17:16:11.975Z,93.30
2022-10-31T17:18:41.871Z,93.40
2022-10-31T17:21:22.170Z,93.20
2022-10-31T17:23:53.727Z,93.30
2022-10-31T17:26:23.932Z,93.30
2022-10-31T17:28:53.696Z,93.10
2022-10-31T17:31:31.373Z,93.10
2022-10-31T17:34:03.718Z,93.30
2022-10-31T17:36:36.161Z,93.50
2022-10-31T17:39:09.012Z,93.50
2022-10-31T17:41:38.950Z,93.60
2022-10-31T17:44:09.210Z,93.80
2022-10-31T17:46:39.639Z,93.80
2022-10-31T17:49:10.783Z,93.90
2022-10-31T17:51:40.831Z,93.90
2022-10-31T17:54:11.833Z,93.80
2022-10-31T17:56:41.737Z,93.80
2022-10-31T17:59:11.546Z,93.80
2022-10-31T18:01:41.556Z,94.00
2022-10-31T18:04:11.615Z,94.10
2022-10-31T18:06:41.396Z,94.00
2022-10-31T18:09:11.423Z,93.90
2022-10-31T18:11:41.317Z,93.90
2022-10-31T18:14:12.382Z,94.20
2022-10-31T18:16:42.236Z,93.90
2022-10-31T18:19:17.713Z,94.00
2022-10-31T18:21:50.250Z,94.10
2022-10-31T18:24:20.179Z,94.30
2022-10-31T18:26:50.604Z,94.40
2022-10-31T18:29:19.729Z,94.30
2022-10-31T18:31:50.789Z,94.20
2022-10-31T18:34:21.759Z,94.10
2022-10-31T18:36:51.989Z,93.90
2022-10-31T18:39:21.950Z,94.10
2022-10-31T18:41:52.595Z,94.00
2022-10-31T18:44:23.284Z,94.00
2022-10-31T18:46:53.233Z,93.80
2022-10-31T18:49:25.577Z,93.90
2022-10-31T18:51:55.808Z,94.00
2022-10-31T18:54:25.624Z,94.20
2022-10-31T18:56:56.155Z,94.30
2022-10-31T18:59:25.970Z,94.50
2022-10-31T19:01:55.996Z,94.40
2022-10-31T19:04:26.102Z,94.50
2022-10-31T19:06:57.165Z,94.60
2022-10-31T19:09:27.604Z,94.60
2022-10-31T19:11:57.356Z,94.50
2022-10-31T19:14:27.203Z,94.50
2022-10-31T19:17:01.279Z,94.50
2022-10-31T19:19:32.406Z,94.60
2022-10-31T19:22:03.531Z,94.40
2022-10-31T19:24:33.404Z,94.40
2022-10-31T19:27:03.313Z,94.50
2022-10-31T19:29:33.167Z,94.50
2022-10-31T19:32:03.240Z,94.60
2022-10-31T19:34:33.087Z,94.70
2022-10-31T19:37:03.069Z,94.60
2022-10-31T19:39:32.890Z,94.60
2022-10-31T19:42:02.738Z,94.70
2022-10-31T19:44:34.201Z,94.80
2022-10-31T19:47:04.019Z,94.40
2022-10-31T19:49:33.945Z,94.30
2022-10-31T19:52:04.425Z,94.40
2022-10-31T19:54:33.808Z,94.60
2022-10-31T19:57:04.129Z,94.50
2022-10-31T19:59:38.996Z,94.50
2022-10-31T20:02:09.584Z,94.50
2022-10-31T20:04:39.390Z,94.60
2022-10-31T20:07:10.962Z,94.70
2022-10-31T20:09:40.717Z,94.80
2022-10-31T20:12:10.625Z,95.10
2022-10-31T20:14:40.562Z,95.20
2022-10-31T20:17:10.719Z,95.30
2022-10-31T20:19:40.652Z,95.40
2022-10-31T20:22:10.967Z,95.40
2022-10-31T20:24:40.909Z,95.30
2022-10-31T20:27:10.922Z,95.20
2022-10-31T20:29:40.930Z,95.30
2022-10-31T20:32:10.893Z,95.50
2022-10-31T20:34:42.051Z,95.30
2022-10-31T20:37:12.281Z,95.40
2022-10-31T20:39:44.404Z,95.30
2022-10-31T20:42:14.308Z,95.50
2022-10-31T20:44:44.347Z,95.30
2022-10-31T20:47:15.755Z,95.30
2022-10-31T20:49:45.631Z,95.20
2022-10-31T20:52:15.519Z,95.20
2022-10-31T20:54:45.456Z,95.10
2022-10-31T20:57:15.286Z,95.00
2022-10-31T20:59:45.077Z,94.90
2022-10-31T21:02:15.334Z,95.00
2022-10-31T21:04:45.772Z,95.00
2022-10-31T21:07:15.747Z,95.10
2022-10-31T21:09:45.496Z,95.20
2022-10-31T21:12:15.355Z,95.10
2022-10-31T21:14:45.385Z,95.10
2022-10-31T21:17:15.101Z,95.20
2022-10-31T21:19:44.882Z,95.20
2022-10-31T21:22:14.670Z,95.10
2022-10-31T21:24:45.281Z,95.30
2022-10-31T21:27:15.054Z,95.20
2022-10-31T21:29:45.119Z,95.20
2022-10-31T21:32:14.892Z,95.20
2022-10-31T21:34:44.988Z,95.30
2022-10-31T21:37:15.078Z,95.40
2022-10-31T21:39:50.467Z,95.40
2022-10-31T21:42:24.204Z,95.40
2022-10-31T21:44:54.299Z,95.40
2022-10-31T21:47:24.171Z,95.50
2022-10-31T21:49:54.124Z,95.40
2022-10-31T21:52:23.951Z,95.30
2022-10-31T21:54:53.839Z,95.50
2022-10-31T21:57:23.703Z,95.50
2022-10-31T21:59:53.527Z,95.40
2022-10-31T22:02:23.319Z,95.30
2022-10-31T22:04:53.624Z,95.30
2022-10-31T22:07:23.534Z,95.40
2022-10-31T22:09:53.435Z,95.40
2022-10-31T22:12:23.454Z,95.50
2022-10-31T22:14:53.307Z,95.70
2022-10-31T22:17:23.197Z,95.50
2022-10-31T22:19:53.067Z,95.50
2022-10-31T22:22:23.002Z,95.50
2022-10-31T22:24:52.853Z,95.60
2022-10-31T22:27:22.923Z,95.70
2022-10-31T22:29:56.408Z,95.70
2022-10-31T22:32:28.909Z,95.70
2022-10-31T22:34:58.796Z,95.80
2022-10-31T22:37:28.724Z,95.70
2022-10-31T22:39:58.584Z,95.80
2022-10-31T22:42:28.713Z,95.80
2022-10-31T22:44:58.611Z,95.70
2022-10-31T22:47:28.440Z,95.50
2022-10-31T22:49:58.278Z,95.50
2022-10-31T22:52:28.334Z,95.40
2022-10-31T22:54:59.215Z,95.40
2022-10-31T22:57:29.352Z,95.50
2022-10-31T22:59:59.194Z,95.50
2022-10-31T23:02:30.582Z,95.50
2022-10-31T23:05:00.517Z,95.50
2022-10-31T23:07:32.995Z,95.60
2022-10-31T23:10:03.224Z,95.70
2022-10-31T23:12:51.072Z,95.70
2022-10-31T23:15:21.211Z,95.70
2022-10-31T23:17:51.121Z,95.70
2022-10-31T23:20:21.019Z,95.80
2022-10-31T23:22:51.009Z,95.70
2022-10-31T23:25:31.830Z,95.70
2022-10-31T23:28:01.759Z,95.70
2022-10-31T23:30:31.672Z,95.80
2022-10-31T23:33:01.902Z,95.80
2022-10-31T23:35:31.971Z,95.90
2022-10-31T23:38:02.033Z,95.90
2022-10-31T23:40:32.155Z,95.90
2022-10-31T23:43:01.998Z,96.00
2022-10-31T23:45:31.841Z,96.00
2022-10-31T23:48:02.273Z,95.90
2022-10-31T23:50:32.418Z,95.90
2022-10-31T23:53:02.294Z,95.80
2022-10-31T23:55:33.120Z,95.90
2022-10-31T23:58:03.732Z,95.90
